Terminal Aerodrome Forecast
Issued by NWS Denver/Boulder, CO

Home | Current Version | Previous Version | Text Only | Print | Product List | Glossary On
Versions: 1 2 3 4 5 6 7 8 9 10 11 12 13 14 15 16 17 18 19 20 21 22 23 24 25 26 27 28 29 30 31 32 33 34 35 36 37 38 39 40 41 42 43 44 45 46 47 48 49 50
000
FTUS45 KBOU 251449 AAA
TAFDEN
TAF AMD
KDEN 251449Z 2515/2618 19008KT P6SM FEW180 SCT220
     FM251900 16013KT P6SM FEW150 BKN220
     FM260200 19011KT P6SM SCT100 BKN150
     FM260700 30008KT P6SM BKN050 OVC080
     FM261000 34007KT P6SM VCSH SCT040 OVC060
     FM261400 01014G26KT P6SM BKN035 OVC050
      TEMPO 2614/2618 -SHRA OVC030=

USA.gov is the U.S. government's official web portal to all federal, state and local government web resources and services.